createdAt,value
2024-03-21T00:00:21.202Z,100541.33
2024-03-21T00:01:23.456Z,100538.70
2024-03-21T00:02:25.726Z,100534.30
2024-03-21T00:03:27.818Z,100538.63
2024-03-21T00:04:30.095Z,100540.42
2024-03-21T00:05:32.456Z,100536.81
2024-03-21T00:06:34.951Z,100533.33
2024-03-21T00:07:37.275Z,100536.73
2024-03-21T00:08:39.667Z,100536.73
2024-03-21T00:09:43.183Z,100539.33
2024-03-21T00:10:45.599Z,100535.76
2024-03-21T00:11:48.047Z,100541.02
2024-03-21T00:12:50.926Z,100537.52
2024-03-21T00:13:53.183Z,100535.84
2024-03-21T00:14:55.499Z,100534.11
2024-03-21T00:15:57.736Z,100536.73
2024-03-21T00:17:00.377Z,100530.62
2024-03-21T00:18:02.954Z,100534.11
2024-03-21T00:19:04.973Z,100542.00
2024-03-21T00:20:08.453Z,100536.70
2024-03-21T00:21:10.788Z,100533.13
2024-03-21T00:22:13.001Z,100533.09
2024-03-21T00:23:15.223Z,100542.66
2024-03-21T00:24:17.899Z,100533.88
2024-03-21T00:25:22.204Z,100537.28
2024-03-21T00:26:24.649Z,100535.44
2024-03-21T00:27:26.813Z,100537.12
2024-03-21T00:28:29.542Z,100537.95
2024-03-21T00:29:32.608Z,100537.91
2024-03-21T00:30:34.998Z,100536.06
2024-03-21T00:31:37.450Z,100532.57
2024-03-21T00:32:39.761Z,100536.92
2024-03-21T00:33:43.298Z,100541.20
2024-03-21T00:34:45.519Z,100538.57
2024-03-21T00:35:47.784Z,100534.17
2024-03-21T00:36:50.159Z,100535.86
2024-03-21T00:37:52.391Z,100535.86
2024-03-21T00:38:54.836Z,100535.86
2024-03-21T00:39:57.023Z,100539.36
2024-03-21T00:40:59.416Z,100538.49
2024-03-21T00:42:01.746Z,100535.94
2024-03-21T00:43:04.061Z,100537.66
2024-03-21T00:44:06.229Z,100537.59
2024-03-21T00:45:09.142Z,100538.49
2024-03-21T00:46:11.776Z,100532.33
2024-03-21T00:47:14.042Z,100533.19
2024-03-21T00:48:16.329Z,100533.23
2024-03-21T00:49:18.548Z,100535.73
2024-03-21T00:50:21.097Z,100536.60
2024-03-21T00:51:23.356Z,100534.88
2024-03-21T00:52:25.722Z,100537.51
2024-03-21T00:53:28.031Z,100536.60
2024-03-21T00:54:30.213Z,100530.48
2024-03-21T00:55:34.276Z,100539.23
2024-03-21T00:56:36.639Z,100532.20
2024-03-21T00:57:38.957Z,100538.25
2024-03-21T00:58:41.047Z,100536.41
2024-03-21T00:59:43.186Z,100537.27
2024-03-21T01:00:45.687Z,100531.95
2024-03-21T01:01:48.884Z,100538.91
2024-03-21T01:02:51.416Z,100530.11
2024-03-21T01:03:55.228Z,100533.65
2024-03-21T01:04:57.545Z,100531.02
2024-03-21T01:05:59.831Z,100530.11
2024-03-21T01:07:02.257Z,100527.41
2024-03-21T01:08:04.528Z,100529.98
2024-03-21T01:09:08.020Z,100526.42
2024-03-21T01:10:10.620Z,100531.55
2024-03-21T01:11:13.133Z,100529.78
2024-03-21T01:12:15.436Z,100520.12
2024-03-21T01:13:19.080Z,100523.62
2024-03-21T01:14:21.162Z,100525.26
2024-03-21T01:15:24.022Z,100532.17
2024-03-21T01:16:26.371Z,100527.81
2024-03-21T01:17:28.769Z,100530.40
2024-03-21T01:18:30.919Z,100526.91
2024-03-21T01:19:33.144Z,100515.59
2024-03-21T01:20:35.721Z,100526.98
2024-03-21T01:21:37.874Z,100526.17
2024-03-21T01:22:40.214Z,100524.48
2024-03-21T01:23:42.460Z,100524.48
2024-03-21T01:24:45.671Z,100525.30
2024-03-21T01:25:47.953Z,100520.05
2024-03-21T01:26:50.235Z,100521.77
2024-03-21T01:28:05.976Z,100514.78
2024-03-21T01:29:08.495Z,100517.37
2024-03-21T01:30:12.305Z,100516.45
2024-03-21T01:31:14.673Z,100516.50
2024-03-21T01:32:17.017Z,100513.88
2024-03-21T01:33:19.287Z,100520.00
2024-03-21T01:34:21.354Z,100516.50
2024-03-21T01:35:24.255Z,100513.02
2024-03-21T01:36:26.618Z,100515.64
2024-03-21T01:37:28.945Z,100515.72
2024-03-21T01:38:31.224Z,100513.95
2024-03-21T01:39:33.411Z,100507.87
2024-03-21T01:40:35.878Z,100507.09
2024-03-21T01:41:38.185Z,100512.44
2024-03-21T01:42:40.445Z,100509.84
2024-03-21T01:43:42.768Z,100519.52
2024-03-21T01:45:02.041Z,100510.79
2024-03-21T01:46:19.690Z,100521.31
2024-03-21T01:47:22.093Z,100514.25
2024-03-21T01:48:24.220Z,100520.50
2024-03-21T01:49:26.504Z,100519.72
2024-03-21T01:50:28.930Z,100519.91
2024-03-21T01:51:31.350Z,100515.64
2024-03-21T01:52:38.232Z,100516.62
2024-03-21T01:53:41.826Z,100516.75
2024-03-21T01:54:44.931Z,100523.81
2024-03-21T01:55:47.199Z,100529.28
2024-03-21T01:56:49.641Z,100521.51
2024-03-21T01:57:51.866Z,100526.03
2024-03-21T01:58:54.115Z,100520.84
2024-03-21T01:59:56.383Z,100524.45
2024-03-21T02:01:14.530Z,100525.36
2024-03-21T02:02:16.811Z,100523.67
2024-03-21T02:03:19.303Z,100522.81
2024-03-21T02:04:21.449Z,100517.59
2024-03-21T02:05:23.630Z,100529.91
2024-03-21T02:06:28.416Z,100517.67
2024-03-21T02:07:34.453Z,100522.06
2024-03-21T02:08:36.834Z,100521.28
2024-03-21T02:09:41.566Z,100514.38
2024-03-21T02:10:43.523Z,100518.77
2024-03-21T02:11:45.849Z,100511.79
2024-03-21T02:12:48.046Z,100521.48
2024-03-21T02:13:54.084Z,100522.38
2024-03-21T02:14:56.795Z,100517.12
2024-03-21T02:15:59.089Z,100519.80
2024-03-21T02:17:01.214Z,100517.23
2024-03-21T02:18:03.912Z,100519.80
2024-03-21T02:19:06.194Z,100522.42
2024-03-21T02:20:09.777Z,100519.75
2024-03-21T02:21:12.304Z,100520.61
2024-03-21T02:22:14.596Z,100524.14
2024-03-21T02:23:16.723Z,100518.02
2024-03-21T02:24:18.858Z,100523.28
2024-03-21T02:25:22.954Z,100523.28
2024-03-21T02:26:25.835Z,100524.27
2024-03-21T02:27:27.979Z,100520.77
2024-03-21T02:28:30.334Z,100528.66
2024-03-21T02:29:32.501Z,100525.20
2024-03-21T02:30:34.830Z,100521.63
2024-03-21T02:31:36.854Z,100525.98
2024-03-21T02:32:40.139Z,100531.24
2024-03-21T02:33:42.368Z,100531.17
2024-03-21T02:34:45.732Z,100530.31
2024-03-21T02:35:48.028Z,100525.91
2024-03-21T02:36:50.329Z,100525.88
2024-03-21T02:37:52.688Z,100525.88
2024-03-21T02:38:55.058Z,100525.05
2024-03-21T02:39:57.458Z,100526.89
2024-03-21T02:40:59.728Z,100527.83
2024-03-21T02:42:01.945Z,100523.55
2024-03-21T02:43:05.970Z,100529.75
2024-03-21T02:44:08.147Z,100522.85
2024-03-21T02:45:10.375Z,100529.08
2024-03-21T02:46:12.716Z,100529.16
2024-03-21T02:47:18.827Z,100527.51
2024-03-21T02:48:21.140Z,100532.80
2024-03-21T02:49:23.321Z,100528.53
2024-03-21T02:50:25.707Z,100530.36
2024-03-21T02:51:28.038Z,100522.48
2024-03-21T02:52:30.391Z,100530.44
2024-03-21T02:53:32.804Z,100534.88
2024-03-21T02:54:35.414Z,100530.55
2024-03-21T02:55:37.679Z,100532.32
2024-03-21T02:56:39.907Z,100534.09
2024-03-21T02:57:42.215Z,100536.78
2024-03-21T02:58:44.424Z,100533.30
2024-03-21T02:59:46.929Z,100532.47
2024-03-21T03:00:49.289Z,100537.73
2024-03-21T03:01:52.862Z,100536.08
2024-03-21T03:02:55.355Z,100533.45
2024-03-21T03:03:57.635Z,100534.31
2024-03-21T03:04:59.933Z,100537.80
2024-03-21T03:06:02.658Z,100542.16
2024-03-21T03:07:05.109Z,100543.92
2024-03-21T03:08:07.409Z,100539.52
2024-03-21T03:09:09.571Z,100538.59
2024-03-21T03:10:12.493Z,100543.92
2024-03-21T03:11:14.707Z,100547.45
2024-03-21T03:12:16.906Z,100542.30
2024-03-21T03:13:19.349Z,100547.56
2024-03-21T03:14:21.677Z,100548.42
2024-03-21T03:15:24.015Z,100550.26
2024-03-21T03:16:26.371Z,100547.63
2024-03-21T03:17:28.793Z,100546.77
2024-03-21T03:18:31.096Z,100552.02
2024-03-21T03:19:33.263Z,100552.09
2024-03-21T03:20:35.587Z,100559.11
2024-03-21T03:21:37.669Z,100563.58
2024-03-21T03:22:39.949Z,100557.50
2024-03-21T03:23:42.260Z,100558.44
2024-03-21T03:24:44.609Z,100559.41
2024-03-21T03:25:46.795Z,100560.31
2024-03-21T03:26:49.392Z,100562.07
2024-03-21T03:27:51.485Z,100562.07
2024-03-21T03:28:53.688Z,100567.39
2024-03-21T03:29:55.978Z,100565.74
2024-03-21T03:30:58.403Z,100562.29
2024-03-21T03:32:00.810Z,100572.91
2024-03-21T03:33:03.286Z,100571.14
2024-03-21T03:34:05.624Z,100570.28
2024-03-21T03:35:08.224Z,100575.59
2024-03-21T03:36:10.780Z,100573.88
2024-03-21T03:37:13.051Z,100575.67
2024-03-21T03:38:15.204Z,100571.31
2024-03-21T03:39:17.440Z,100576.57
2024-03-21T03:40:19.859Z,100573.94
2024-03-21T03:41:22.278Z,100571.25
2024-03-21T03:42:24.554Z,100575.59
2024-03-21T03:43:26.598Z,100582.58
2024-03-21T03:44:28.968Z,100582.58
2024-03-21T03:45:31.324Z,100579.95
2024-03-21T03:46:33.626Z,100579.09
2024-03-21T03:47:36.044Z,100583.48
2024-03-21T03:48:40.279Z,100580.92
2024-03-21T03:49:42.481Z,100579.20
2024-03-21T03:50:45.030Z,100589.70
2024-03-21T03:51:47.475Z,100588.80
2024-03-21T03:52:49.661Z,100587.94
2024-03-21T03:53:52.002Z,100587.97
2024-03-21T03:54:54.209Z,100586.21
2024-03-21T03:55:56.452Z,100585.34
2024-03-21T03:56:58.820Z,100587.97
2024-03-21T03:58:01.039Z,100584.55
2024-03-21T03:59:03.363Z,100587.25
2024-03-21T04:00:06.662Z,100585.59
2024-03-21T04:01:14.603Z,100589.16
2024-03-21T04:02:16.941Z,100591.95
2024-03-21T04:03:19.092Z,100594.69
2024-03-21T04:04:21.448Z,100588.64
2024-03-21T04:05:23.648Z,100595.66
2024-03-21T04:06:26.089Z,100598.28
2024-03-21T04:07:28.246Z,100593.89
2024-03-21T04:08:30.775Z,100598.23
2024-03-21T04:09:33.073Z,100595.55
2024-03-21T04:10:35.527Z,100599.03
2024-03-21T04:11:37.823Z,100600.73
2024-03-21T04:12:40.654Z,100598.10
2024-03-21T04:13:43.290Z,100600.69
2024-03-21T04:14:45.550Z,100601.55
2024-03-21T04:15:53.651Z,100600.63
2024-03-21T04:16:56.304Z,100601.45
2024-03-21T04:17:58.466Z,100600.63
2024-03-21T04:19:00.723Z,100598.86
2024-03-21T04:20:03.685Z,100604.08
2024-03-21T04:21:05.933Z,100603.97
2024-03-21T04:22:08.191Z,100604.77
2024-03-21T04:23:10.410Z,100600.41
2024-03-21T04:24:12.701Z,100603.04
2024-03-21T04:25:14.973Z,100614.47
2024-03-21T04:26:17.240Z,100607.50
2024-03-21T04:27:19.458Z,100606.63
2024-03-21T04:28:21.684Z,100610.98
2024-03-21T04:29:23.860Z,100601.45
2024-03-21T04:30:26.188Z,100599.80
2024-03-21T04:31:28.425Z,100607.67
2024-03-21T04:32:30.918Z,100608.57
2024-03-21T04:33:32.971Z,100608.57
2024-03-21T04:34:35.283Z,100606.84
2024-03-21T04:35:37.739Z,100608.50
2024-03-21T04:36:42.316Z,100609.47
2024-03-21T04:37:44.508Z,100612.27
2024-03-21T04:38:47.250Z,100609.67
2024-03-21T04:39:49.758Z,100614.92
2024-03-21T04:40:52.187Z,100616.72
2024-03-21T04:41:54.564Z,100619.34
2024-03-21T04:42:58.086Z,100607.12
2024-03-21T04:44:00.425Z,100616.72
2024-03-21T04:45:02.715Z,100614.92
2024-03-21T04:46:04.950Z,100616.75
2024-03-21T04:47:07.194Z,100616.75
2024-03-21T04:48:09.344Z,100618.52
2024-03-21T04:49:11.634Z,100622.00
2024-03-21T04:50:13.919Z,100627.25
2024-03-21T04:51:16.415Z,100616.72
2024-03-21T04:52:18.744Z,100618.48
2024-03-21T04:53:21.067Z,100621.04
2024-03-21T04:54:25.335Z,100630.64
2024-03-21T04:55:29.373Z,100614.02
2024-03-21T04:56:31.787Z,100628.81
2024-03-21T04:57:34.024Z,100628.77
2024-03-21T04:58:36.299Z,100624.32
2024-03-21T04:59:38.610Z,100624.25
2024-03-21T05:00:40.888Z,100621.52
2024-03-21T05:01:43.109Z,100625.80
2024-03-21T05:02:45.379Z,100617.03
2024-03-21T05:03:47.692Z,100624.84
2024-03-21T05:04:50.119Z,100621.24
2024-03-21T05:05:52.237Z,100622.97
2024-03-21T05:06:54.839Z,100629.02
2024-03-21T05:07:57.120Z,100624.63
2024-03-21T05:08:59.451Z,100623.73
2024-03-21T05:10:02.257Z,100624.52
2024-03-21T05:11:04.643Z,100623.55
2024-03-21T05:12:07.230Z,100625.17
2024-03-21T05:13:09.554Z,100623.34
2024-03-21T05:14:11.702Z,100628.48
2024-03-21T05:15:15.964Z,100631.05
2024-03-21T05:16:18.557Z,100630.14
2024-03-21T05:17:20.727Z,100626.72
2024-03-21T05:18:23.083Z,100627.55
2024-03-21T05:19:25.394Z,100626.72
2024-03-21T05:20:27.872Z,100625.75
2024-03-21T05:21:30.128Z,100633.63
2024-03-21T05:22:32.329Z,100627.55
2024-03-21T05:23:34.747Z,100629.35
2024-03-21T05:24:37.185Z,100633.78
2024-03-21T05:25:39.759Z,100628.59
2024-03-21T05:26:42.369Z,100633.91
2024-03-21T05:27:44.578Z,100632.19
2024-03-21T05:28:46.921Z,100632.12
2024-03-21T05:29:49.240Z,100630.42
2024-03-21T05:30:54.738Z,100633.91
2024-03-21T05:31:56.093Z,100639.96
2024-03-21T05:32:58.294Z,100637.34
2024-03-21T05:34:00.976Z,100633.84
2024-03-21T05:35:03.477Z,100631.15
2024-03-21T05:36:07.934Z,100638.13
2024-03-21T05:37:10.247Z,100629.28
2024-03-21T05:38:15.230Z,100637.91
2024-03-21T05:39:16.655Z,100639.50
2024-03-21T05:40:19.201Z,100636.05
2024-03-21T05:41:21.514Z,100636.08
2024-03-21T05:42:23.680Z,100642.23
2024-03-21T05:43:25.952Z,100640.55
2024-03-21T05:44:29.230Z,100638.81
2024-03-21T05:45:31.546Z,100644.07
2024-03-21T05:46:34.255Z,100647.48
2024-03-21T05:47:37.340Z,100645.73
2024-03-21T05:48:39.733Z,100644.75
2024-03-21T05:49:42.081Z,100649.04
2024-03-21T05:50:44.700Z,100647.27
2024-03-21T05:51:46.916Z,100649.86
2024-03-21T05:52:49.139Z,100648.94
2024-03-21T05:53:51.580Z,100653.28
2024-03-21T05:54:54.065Z,100648.89
2024-03-21T05:56:03.758Z,100649.76
2024-03-21T05:57:05.864Z,100654.04
2024-03-21T05:58:08.498Z,100653.93
2024-03-21T05:59:10.918Z,100650.27
2024-03-21T06:00:14.605Z,100651.02
2024-03-21T06:01:18.193Z,100642.95
2024-03-21T06:02:20.755Z,100648.89
2024-03-21T06:03:22.952Z,100645.24
2024-03-21T06:04:25.524Z,100646.94
2024-03-21T06:05:28.318Z,100642.55
2024-03-21T06:06:30.665Z,100652.05
2024-03-21T06:07:33.019Z,100651.94
2024-03-21T06:08:35.556Z,100650.88
2024-03-21T06:09:37.866Z,100651.63
2024-03-21T06:10:40.400Z,100648.03
2024-03-21T06:11:42.647Z,100654.03
2024-03-21T06:12:45.052Z,100655.58
2024-03-21T06:13:47.136Z,100657.16
2024-03-21T06:14:49.328Z,100650.87
2024-03-21T06:15:51.846Z,100651.55
2024-03-21T06:16:54.410Z,100658.34
2024-03-21T06:17:56.736Z,100661.64
2024-03-21T06:18:58.927Z,100660.59
2024-03-21T06:20:01.220Z,100659.68
2024-03-21T06:21:03.895Z,100659.68
2024-03-21T06:22:06.199Z,100660.42
2024-03-21T06:23:09.069Z,100664.75
2024-03-21T06:24:11.496Z,100669.06
2024-03-21T06:25:13.971Z,100668.98
2024-03-21T06:26:16.884Z,100659.20
2024-03-21T06:27:19.171Z,100662.62
2024-03-21T06:28:21.682Z,100660.78
2024-03-21T06:29:24.243Z,100666.79
2024-03-21T06:30:27.003Z,100665.69
2024-03-21T06:31:30.669Z,100665.48
2024-03-21T06:32:33.166Z,100668.12
2024-03-21T06:33:36.178Z,100670.75
2024-03-21T06:34:38.992Z,100663.72
2024-03-21T06:35:41.100Z,100663.72
2024-03-21T06:36:43.529Z,100666.27
2024-03-21T06:37:45.929Z,100662.81
2024-03-21T06:38:49.459Z,100667.25
2024-03-21T06:39:51.704Z,100666.47
2024-03-21T06:40:54.022Z,100661.20
2024-03-21T06:41:56.481Z,100663.05
2024-03-21T06:42:59.129Z,100659.63
2024-03-21T06:44:01.611Z,100663.84
2024-03-21T06:45:04.357Z,100663.72
2024-03-21T06:46:06.859Z,100663.72
2024-03-21T06:47:11.045Z,100660.10
2024-03-21T06:48:13.365Z,100661.83
2024-03-21T06:49:15.681Z,100660.96
2024-03-21T06:50:18.919Z,100666.15
2024-03-21T06:51:21.309Z,100662.53
2024-03-21T06:52:24.287Z,100664.92
2024-03-21T06:53:26.956Z,100663.03
2024-03-21T06:54:29.406Z,100669.03
2024-03-21T06:55:33.806Z,100665.45
2024-03-21T06:56:36.418Z,100670.47
2024-03-21T06:57:46.674Z,100669.36
2024-03-21T06:58:49.232Z,100665.73
2024-03-21T06:59:51.989Z,100668.25
2024-03-21T07:00:54.698Z,100666.40
2024-03-21T07:01:58.818Z,100673.31
2024-03-21T07:03:01.148Z,100671.49
2024-03-21T07:04:03.771Z,100669.77
2024-03-21T07:05:08.431Z,100674.91
2024-03-21T07:06:11.165Z,100673.06
2024-03-21T07:07:13.656Z,100672.07
2024-03-21T07:08:16.300Z,100673.66
2024-03-21T07:09:18.514Z,100673.59
2024-03-21T07:10:21.204Z,100675.31
2024-03-21T07:11:23.532Z,100672.67
2024-03-21T07:12:26.047Z,100668.19
2024-03-21T07:13:28.273Z,100670.56
2024-03-21T07:14:30.670Z,100669.58
2024-03-21T07:15:32.918Z,100672.13
2024-03-21T07:16:35.395Z,100669.31
2024-03-21T07:17:37.613Z,100672.73
2024-03-21T07:18:39.949Z,100675.23
2024-03-21T07:19:42.323Z,100673.38
2024-03-21T07:20:44.493Z,100675.05
2024-03-21T07:21:46.872Z,100673.28
2024-03-21T07:22:49.943Z,100675.00
2024-03-21T07:23:52.366Z,100672.28
2024-03-21T07:24:54.552Z,100676.78
2024-03-21T07:25:59.036Z,100675.78
2024-03-21T07:27:01.162Z,100678.29
2024-03-21T07:28:04.191Z,100679.98
2024-03-21T07:29:06.661Z,100678.20
2024-03-21T07:30:10.438Z,100678.16
2024-03-21T07:31:12.908Z,100681.49
2024-03-21T07:32:15.253Z,100683.08
2024-03-21T07:33:17.410Z,100682.35
2024-03-21T07:34:19.670Z,100679.53
2024-03-21T07:35:21.870Z,100677.59
2024-03-21T07:36:24.338Z,100686.02
2024-03-21T07:37:26.512Z,100684.83
2024-03-21T07:38:28.992Z,100681.84
2024-03-21T07:39:32.084Z,100686.11
2024-03-21T07:40:34.763Z,100685.06
2024-03-21T07:41:37.164Z,100689.34
2024-03-21T07:42:39.432Z,100686.61
2024-03-21T07:43:41.834Z,100684.70
2024-03-21T07:44:44.056Z,100687.20
2024-03-21T07:45:46.293Z,100685.34
2024-03-21T07:46:50.148Z,100689.61
2024-03-21T07:47:52.379Z,100688.70
2024-03-21T07:48:54.683Z,100686.84
2024-03-21T07:49:57.046Z,100691.03
2024-03-21T07:50:59.575Z,100689.20
2024-03-21T07:52:01.783Z,100687.33
2024-03-21T07:53:04.395Z,100690.70
2024-03-21T07:54:06.605Z,100692.24
2024-03-21T07:55:09.335Z,100686.77
2024-03-21T07:56:11.906Z,100689.09
2024-03-21T07:57:14.100Z,100689.67
2024-03-21T07:58:17.626Z,100690.53
2024-03-21T07:59:19.874Z,100697.50
2024-03-21T08:00:22.231Z,100692.94
2024-03-21T08:01:26.917Z,100693.66
2024-03-21T08:02:29.365Z,100690.87
2024-03-21T08:03:31.564Z,100688.91
2024-03-21T08:04:33.704Z,100688.63
2024-03-21T08:05:37.850Z,100690.05
2024-03-21T08:06:40.328Z,100688.72
2024-03-21T08:07:42.626Z,100691.06
2024-03-21T08:08:45.071Z,100689.28
2024-03-21T08:09:47.352Z,100684.00
2024-03-21T08:10:50.020Z,100689.91
2024-03-21T08:11:53.532Z,100689.75
2024-03-21T08:12:55.909Z,100682.45
2024-03-21T08:13:58.311Z,100688.29
2024-03-21T08:15:00.804Z,100683.63
2024-03-21T08:16:03.374Z,100686.11
2024-03-21T08:17:05.761Z,100687.89
2024-03-21T08:18:08.238Z,100695.83
2024-03-21T08:19:10.478Z,100680.12
2024-03-21T08:20:13.151Z,100694.97
2024-03-21T08:21:17.912Z,100689.62
2024-03-21T08:22:19.732Z,100690.48
2024-03-21T08:23:22.218Z,100691.16
2024-03-21T08:24:24.526Z,100683.02
2024-03-21T08:25:28.206Z,100677.53
2024-03-21T08:26:30.518Z,100688.66
2024-03-21T08:27:32.982Z,100685.77
2024-03-21T08:28:37.330Z,100684.59
2024-03-21T08:29:39.489Z,100689.73
2024-03-21T08:30:41.921Z,100685.24
2024-03-21T08:31:44.308Z,100692.98
2024-03-21T08:33:06.464Z,100690.34
2024-03-21T08:34:08.731Z,100684.99
2024-03-21T08:35:11.060Z,100688.24
2024-03-21T08:36:14.852Z,100689.87
2024-03-21T08:37:17.307Z,100689.71
2024-03-21T08:38:19.968Z,100689.61
2024-03-21T08:39:22.187Z,100686.91
2024-03-21T08:40:24.637Z,100686.75
2024-03-21T08:41:26.943Z,100685.73
2024-03-21T08:42:29.931Z,100682.22
2024-03-21T08:43:32.208Z,100686.33
2024-03-21T08:44:34.684Z,100693.09
2024-03-21T08:45:36.896Z,100683.14
2024-03-21T08:46:39.342Z,100689.99
2024-03-21T08:47:41.911Z,100688.88
2024-03-21T08:48:44.138Z,100692.38
2024-03-21T08:49:47.368Z,100690.66
2024-03-21T08:50:49.898Z,100688.88
2024-03-21T08:51:52.253Z,100695.19
2024-03-21T08:52:54.680Z,100695.13
2024-03-21T08:53:56.875Z,100697.77
2024-03-21T08:54:59.211Z,100703.73
2024-03-21T08:56:01.358Z,100700.06
2024-03-21T08:57:03.837Z,100697.09
2024-03-21T08:58:06.092Z,100703.94
2024-03-21T08:59:08.829Z,100704.77
2024-03-21T09:00:12.521Z,100702.22
2024-03-21T09:01:15.771Z,100702.05
2024-03-21T09:02:18.693Z,100698.28
2024-03-21T09:03:23.038Z,100704.11
2024-03-21T09:04:25.192Z,100697.78
2024-03-21T09:05:27.841Z,100702.06
2024-03-21T09:06:31.773Z,100700.17
2024-03-21T09:07:34.116Z,100705.30
2024-03-21T09:08:36.440Z,100703.28
2024-03-21T09:09:38.922Z,100697.61
2024-03-21T09:10:41.307Z,100698.14
2024-03-21T09:11:43.979Z,100693.53
2024-03-21T09:12:46.622Z,100699.48
2024-03-21T09:13:49.141Z,100694.87
2024-03-21T09:14:51.366Z,100694.53
2024-03-21T09:15:53.708Z,100698.70
2024-03-21T09:16:56.195Z,100691.44
2024-03-21T09:17:58.393Z,100697.50
2024-03-21T09:19:00.718Z,100688.62
2024-03-21T09:20:03.382Z,100692.72
2024-03-21T09:21:05.650Z,100690.75
2024-03-21T09:22:08.060Z,100686.96
2024-03-21T09:23:10.477Z,100693.12
2024-03-21T09:24:12.922Z,100697.49
2024-03-21T09:25:16.657Z,100697.11
2024-03-21T09:26:19.281Z,100690.77
2024-03-21T09:27:25.814Z,100688.05
2024-03-21T09:28:27.539Z,100689.56
2024-03-21T09:29:29.937Z,100692.14
2024-03-21T09:30:32.496Z,100694.62
2024-03-21T09:31:35.087Z,100689.31
2024-03-21T09:32:37.417Z,100685.63
2024-03-21T09:33:39.742Z,100679.36
2024-03-21T09:34:42.490Z,100678.42
2024-03-21T09:35:45.105Z,100687.23
2024-03-21T09:36:47.650Z,100686.38
2024-03-21T09:37:49.833Z,100680.22
2024-03-21T09:38:52.389Z,100679.56
2024-03-21T09:39:54.750Z,100681.25
2024-03-21T09:40:59.157Z,100681.94
2024-03-21T09:42:02.535Z,100684.13
2024-03-21T09:43:05.261Z,100675.80
2024-03-21T09:44:11.385Z,100676.20
2024-03-21T09:45:14.033Z,100678.38
2024-03-21T09:46:19.723Z,100671.78
2024-03-21T09:47:24.367Z,100676.42
2024-03-21T09:48:27.006Z,100675.13
2024-03-21T09:49:32.338Z,100681.56
2024-03-21T09:50:35.107Z,100675.31
2024-03-21T09:51:39.353Z,100666.23
2024-03-21T09:52:41.828Z,100665.73
2024-03-21T09:53:44.115Z,100671.42
2024-03-21T09:54:46.563Z,100666.97
2024-03-21T09:55:48.987Z,100673.14
2024-03-21T09:56:53.962Z,100664.58
2024-03-21T09:57:56.424Z,100671.61
2024-03-21T09:59:00.676Z,100667.05
2024-03-21T10:00:03.571Z,100668.47
2024-03-21T10:01:22.682Z,100673.70
2024-03-21T10:02:25.098Z,100668.28
2024-03-21T10:03:27.295Z,100661.91
2024-03-21T10:04:29.938Z,100664.57
2024-03-21T10:05:32.428Z,100667.97
2024-03-21T10:06:48.200Z,100665.31
2024-03-21T10:07:50.569Z,100663.63
2024-03-21T10:08:53.330Z,100659.92
2024-03-21T10:09:56.947Z,100663.44
2024-03-21T10:11:01.330Z,100657.94
2024-03-21T10:12:03.998Z,100657.83
2024-03-21T10:13:08.219Z,100661.23
2024-03-21T10:14:13.059Z,100657.83
2024-03-21T10:15:15.360Z,100660.29
2024-03-21T10:16:18.616Z,100657.13
2024-03-21T10:17:21.021Z,100659.41
2024-03-21T10:18:23.300Z,100667.92
2024-03-21T10:19:25.576Z,100661.28
2024-03-21T10:20:28.013Z,100662.02
2024-03-21T10:21:30.301Z,100662.77
2024-03-21T10:22:32.492Z,100661.63
2024-03-21T10:23:35.641Z,100659.41
2024-03-21T10:24:38.637Z,100657.21
2024-03-21T10:25:40.828Z,100659.67
2024-03-21T10:26:43.428Z,100652.44
2024-03-21T10:27:48.834Z,100641.88
2024-03-21T10:28:51.470Z,100656.16
2024-03-21T10:29:55.523Z,100650.09
2024-03-21T10:30:58.261Z,100658.06
2024-03-21T10:32:00.595Z,100647.12
2024-03-21T10:33:03.506Z,100652.89
2024-03-21T10:34:06.913Z,100653.92
2024-03-21T10:35:19.171Z,100655.55
2024-03-21T10:36:18.719Z,100653.52
2024-03-21T10:37:23.120Z,100649.06
2024-03-21T10:38:26.819Z,100647.06
2024-03-21T10:39:29.162Z,100648.45
2024-03-21T10:40:33.440Z,100648.99
2024-03-21T10:41:36.815Z,100655.26
2024-03-21T10:42:41.976Z,100642.08
2024-03-21T10:43:46.675Z,100652.59
2024-03-21T10:44:50.267Z,100651.66
2024-03-21T10:45:52.897Z,100643.27
2024-03-21T10:46:58.265Z,100644.95
2024-03-21T10:48:00.526Z,100642.20
2024-03-21T10:49:03.073Z,100647.81
2024-03-21T10:50:09.858Z,100639.95
2024-03-21T10:51:17.844Z,100639.95
2024-03-21T10:52:20.656Z,100641.55
2024-03-21T10:53:23.762Z,100640.61
2024-03-21T10:54:26.246Z,100642.09
2024-03-21T10:55:28.568Z,100633.70
2024-03-21T10:56:38.238Z,100644.88
2024-03-21T10:57:40.490Z,100640.12
2024-03-21T10:58:43.377Z,100637.04
2024-03-21T10:59:58.752Z,100636.41
2024-03-21T11:01:03.441Z,100641.84
2024-03-21T11:02:05.913Z,100633.97
2024-03-21T11:03:11.717Z,100629.90
2024-03-21T11:04:14.458Z,100632.88
2024-03-21T11:05:18.533Z,100631.80
2024-03-21T11:06:26.493Z,100627.55
2024-03-21T11:07:31.308Z,100638.41
2024-03-21T11:08:33.650Z,100631.62
2024-03-21T11:09:36.011Z,100633.30
2024-03-21T11:10:39.103Z,100628.19
2024-03-21T11:11:42.094Z,100632.69
2024-03-21T11:12:46.956Z,100623.84
2024-03-21T11:14:02.266Z,100632.04
2024-03-21T11:15:05.840Z,100636.17
2024-03-21T11:16:08.733Z,100632.78
2024-03-21T11:17:13.528Z,100629.44
2024-03-21T11:18:15.897Z,100630.73
2024-03-21T11:19:20.035Z,100626.98
2024-03-21T11:20:22.636Z,100626.64
2024-03-21T11:21:25.454Z,100634.20
2024-03-21T11:22:27.836Z,100628.31
2024-03-21T11:23:30.609Z,100626.67
2024-03-21T11:24:33.106Z,100626.97
2024-03-21T11:25:35.936Z,100628.45
2024-03-21T11:26:38.661Z,100626.87
2024-03-21T11:27:42.229Z,100622.40
2024-03-21T11:28:45.877Z,100628.45
2024-03-21T11:29:48.223Z,100612.59
2024-03-21T11:30:50.681Z,100618.97
2024-03-21T11:31:52.911Z,100625.16
2024-03-21T11:32:55.261Z,100618.36
2024-03-21T11:33:57.476Z,100614.33
2024-03-21T11:34:59.868Z,100618.90
2024-03-21T11:36:02.209Z,100616.23
2024-03-21T11:37:04.949Z,100612.62
2024-03-21T11:38:11.290Z,100616.36
2024-03-21T11:39:14.840Z,100615.72
2024-03-21T11:40:21.580Z,100613.28
2024-03-21T11:41:24.368Z,100614.36
2024-03-21T11:42:26.907Z,100613.11
2024-03-21T11:43:29.818Z,100615.04
2024-03-21T11:44:32.168Z,100609.08
2024-03-21T11:45:37.786Z,100613.67
2024-03-21T11:46:43.616Z,100614.74
2024-03-21T11:47:46.188Z,100609.50
2024-03-21T11:49:11.865Z,100607.83
2024-03-21T11:50:16.242Z,100604.39
2024-03-21T11:51:18.663Z,100605.81
2024-03-21T11:52:21.143Z,100608.50
2024-03-21T11:53:23.610Z,100608.08
2024-03-21T11:54:27.191Z,100602.63
2024-03-21T11:55:31.333Z,100604.13
2024-03-21T11:56:35.092Z,100602.11
2024-03-21T11:57:37.532Z,100596.44
2024-03-21T11:58:39.872Z,100596.32